Terminal Aerodrome Forecast
Issued by NWS

Home | Current Version | Previous Version | Text Only | Print | Product List | Glossary On
Versions: 1 2 3 4 5 6 7 8 9 10 11 12 13 14 15 16 17 18 19 20 21 22 23
000
FTUS43 KILX 212300 CCA
TAFCMI
TAF COR
KCMI 212350Z 2200/2224 20007KT P6SM VCTS BKN035CB
     FM220100 19006KT P6SM SCT080 BKN250
     FM220800 19006KT P6SM VCTS BKN080CB
     FM221400 23008KT P6SM VCSH BKN050
     FM221800 24010KT P6SM SCT045=

USA.gov is the U.S. government's official web portal to all federal, state and local government web resources and services.